ESSA

Stockholm-Arlanda Airport

Stockholm, Sweden
METAR ESSA 231350Z 02008KT 340V060 2000 R01L/P1500N R19R/P1500N R01R/P1500N R19L/P1500N SN OVC004 M04/M06 Q1029 R01L/19//61 R01R/19//66 R08/////// TEMPO 4000 -SN
Observed Flight Rules
Feb-23 @ 13:50 UTC (41 minutes ago) Instrument Flight Rules
Wind Visibility Clouds Conditions
20° at 8 knots 1,996 meters
  • Overcast at 400' AGL
  • Snow
Temperatures Readings
Current -4°C / 25°F
Dewpoint -6°C / 21°F
Humidity 86%
Altimeter 30.38" Hg
Pressure 1029 hPa
Elevation 61
METAR ESSA 231350Z 02008KT 340V060 2000 R01L/P1500N R19R/P1500N R01R/P1500N R19L/P1500N SN OVC004 M04/M06 Q1029 R01L/19//61 R01R/19//66 R08/////// TEMPO 4000 -SN
Observed Flight Rules
Feb-23 @ 13:50 UTC
(41 minutes ago)
LIFR
Wind Visibility
20° at 8 knots 1,996 meters
Clouds
  • Overcast at 400' AGL
Conditions
  • Snow
Temperature Dewpoint
-4°C / 25°F -6°C / 21°F
Humidity Altimeter Pressure
86% 30.38" Hg 1029 hPa